Time;durP1;ratioP1;P1;durP2;ratioP2;P2;SDS_P1;SDS_P2;PMS_P1;PMS_P2;Temp;Humidity;BMP_temperature;BMP_pressure;BME280_temperature;BME280_humidity;BME280_pressure;Samples;Min_cycle;Max_cycle;Signal;HPM_P1;HPM_P2
2022/11/28 00:02:04;;;;;;;9.23;6.85;;;6.70;99.90;;;;;;5108733;28;20322;-77
2022/11/28 00:04:36;;;;;;;14.00;9.38;;;7.10;99.90;;;;;;5102262;27;20037;-78
2022/11/28 00:07:16;;;;;;;12.52;8.30;;;6.80;99.90;;;;;;5065117;28;20307;-77
2022/11/28 00:10:19;;;;;;;11.25;7.78;;;7.00;99.90;;;;;;5083047;28;20036;-75
2022/11/28 00:12:59;;;;;;;11.77;7.95;;;6.50;99.90;;;;;;5097795;28;20024;-76
2022/11/28 00:15:26;;;;;;;11.75;7.72;;;;;;;;;;5097078;28;20164;-75
2022/11/28 00:21:41;;;;;;;13.75;8.63;;;6.90;99.90;;;;;;5074593;27;20329;-76
2022/11/28 00:24:08;;;;;;;12.10;7.35;;;;;;;;;;5104244;28;20230;-80
2022/11/28 00:26:38;;;;;;;13.75;7.57;;;7.10;99.90;;;;;;5086714;28;20303;-78
2022/11/28 00:29:04;;;;;;;11.90;7.78;;;7.00;99.90;;;;;;5101663;28;20252;-78
2022/11/28 00:31:33;;;;;;;10.80;7.68;;;6.70;99.90;;;;;;5086674;28;20084;-77
2022/11/28 00:34:45;;;;;;;15.18;8.25;;;6.50;99.90;;;;;;5137927;27;20042;-79
2022/11/28 00:37:11;;;;;;;11.55;7.70;;;;;;;;;;5080976;28;20028;-79
2022/11/28 00:39:36;;;;;;;15.07;9.40;;;6.60;99.90;;;;;;5080425;28;20031;-78
2022/11/28 00:42:02;;;;;;;13.20;8.27;;;6.90;99.90;;;;;;5086101;28;20126;-78
2022/11/28 00:44:31;;;;;;;9.60;5.82;;;7.90;99.90;;;;;;5085867;28;20058;-78
2022/11/28 00:47:08;;;;;;;11.98;7.32;;;6.30;99.90;;;;;;5103560;28;20037;-78
2022/11/28 00:49:46;;;;;;;6.60;4.78;;;6.90;99.90;;;;;;5079466;28;20063;-77
2022/11/28 00:52:11;;;;;;;13.77;8.93;;;7.30;99.90;;;;;;5041656;28;20040;-76
2022/11/28 00:54:49;;;;;;;10.45;6.63;;;6.40;99.90;;;;;;5086066;28;20031;-78
2022/11/28 00:57:38;;;;;;;10.85;6.13;;;6.90;99.90;;;;;;5071530;28;20338;-79
2022/11/28 01:00:49;;;;;;;9.70;6.18;;;6.60;99.90;;;;;;5068649;28;20335;-77
2022/11/28 01:06:50;;;;;;;8.50;5.75;;;;;;;;;;5063786;28;20051;-77
2022/11/28 01:12:26;;;;;;;7.13;5.63;;;;;;;;;;5116393;28;20188;-78
2022/11/28 01:14:53;;;;;;;8.18;5.22;;;;;;;;;;5102958;28;20306;-78
2022/11/28 01:18:15;;;;;;;12.98;8.30;;;6.90;99.90;;;;;;5102141;28;20059;-78
2022/11/28 01:20:52;;;;;;;12.13;7.43;;;7.30;99.90;;;;;;5025585;28;20363;-77
2022/11/28 01:23:19;;;;;;;8.88;5.82;;;;;;;;;;5047076;28;20075;-76
2022/11/28 01:26:24;;;;;;;11.35;7.78;;;7.00;99.90;;;;;;5066607;28;20086;-77
2022/11/28 01:28:50;;;;;;;11.17;6.37;;;;;;;;;;5076795;28;20037;-75
2022/11/28 01:31:38;;;;;;;;;;;;;;;;;;;;;
2022/11/28 01:34:46;;;;;;;10.48;5.90;;;6.60;99.90;;;;;;5102478;28;20060;-77
2022/11/28 01:37:12;;;;;;;12.07;8.00;;;;;;;;;;5086357;28;20039;-76
2022/11/28 01:39:39;;;;;;;9.88;7.10;;;;;;;;;;5076368;28;20032;-76
2022/11/28 01:42:04;;;;;;;10.07;7.65;;;6.60;99.90;;;;;;5069560;28;20103;-76
2022/11/28 01:44:30;;;;;;;12.95;6.78;;;6.60;99.90;;;;;;5099657;28;20039;-78
2022/11/28 01:47:19;;;;;;;10.18;5.97;;;6.70;99.90;;;;;;5091127;28;20116;-76
2022/11/28 01:49:52;;;;;;;11.40;7.25;;;6.60;99.90;;;;;;5086465;28;20078;-75
2022/11/28 01:52:20;;;;;;;9.50;4.78;;;7.30;99.90;;;;;;5077464;28;20516;-76
2022/11/28 01:55:00;;;;;;;11.60;7.50;;;7.40;99.90;;;;;;5066161;28;20036;-75
2022/11/28 01:57:58;;;;;;;10.18;6.75;;;7.20;99.90;;;;;;5066231;28;20158;-77
2022/11/28 02:00:33;;;;;;;11.73;7.57;;;7.00;99.90;;;;;;5037049;28;20033;-78
2022/11/28 02:03:43;;;;;;;8.95;5.57;;;10.60;99.90;;;;;;5095870;28;20130;-77
2022/11/28 02:06:13;;;;;;;10.65;6.68;;;7.00;99.90;;;;;;5096772;28;20421;-76
2022/11/28 02:08:39;;;;;;;10.73;8.55;;;;;;;;;;5123425;28;20051;-78
2022/11/28 02:11:39;;;;;;;10.18;7.03;;;7.40;99.90;;;;;;5084576;28;20092;-76
2022/11/28 02:14:17;;;;;;;12.35;7.32;;;7.40;99.90;;;;;;5082972;28;20231;-78
2022/11/28 02:24:33;;;;;;;14.50;7.43;;;7.10;99.90;;;;;;5114396;27;20279;-76
2022/11/28 02:27:37;;;;;;;;;;;;;;;;;;;;;
2022/11/28 02:30:18;;;;;;;9.05;5.13;;;6.90;99.90;;;;;;5105701;28;20046;-75
2022/11/28 02:32:52;;;;;;;13.93;9.27;;;6.80;99.90;;;;;;5085865;28;20059;-75
2022/11/28 02:35:42;;;;;;;13.98;9.50;;;7.90;99.90;;;;;;5102680;28;20375;-78
2022/11/28 02:38:29;;;;;;;17.80;10.73;;;6.90;99.90;;;;;;5070825;28;20107;-76
2022/11/28 02:41:36;;;;;;;11.02;7.60;;;6.90;99.90;;;;;;5119807;28;20063;-76
2022/11/28 02:44:51;;;;;;;15.27;10.43;;;7.20;99.90;;;;;;5071847;28;20085;-78
2022/11/28 02:51:02;;;;;;;10.65;6.32;;;7.40;99.90;;;;;;5094403;28;20035;-76
2022/11/28 02:57:17;;;;;;;13.63;8.32;;;;;;;;;;5122635;27;20507;-77
2022/11/28 03:00:27;;;;;;;21.35;13.10;;;7.50;99.90;;;;;;5068234;28;20196;-77
2022/11/28 03:03:50;;;;;;;;;;;;;;;;;;;;;
2022/11/28 03:06:58;;;;;;;11.75;7.70;;;6.90;99.90;;;;;;5037643;28;20078;-79
2022/11/28 03:10:02;;;;;;;16.00;9.80;;;7.20;99.90;;;;;;5077441;28;20172;-77
2022/11/28 03:12:49;;;;;;;14.18;8.00;;;7.50;99.90;;;;;;5088802;28;20032;-74
2022/11/28 03:18:30;;;;;;;15.35;8.52;;;8.90;99.90;;;;;;5080456;28;20027;-75
2022/11/28 03:21:28;;;;;;;10.95;7.22;;;6.80;99.90;;;;;;5098628;27;20028;-75
2022/11/28 03:27:59;;;;;;;21.38;12.50;;;6.70;99.90;;;;;;5098081;28;20052;-77
2022/11/28 03:30:40;;;;;;;11.07;7.93;;;7.20;99.90;;;;;;5070388;27;20065;-76
2022/11/28 03:33:16;;;;;;;13.45;7.80;;;7.40;99.90;;;;;;5092816;28;20039;-78
2022/11/28 03:35:50;;;;;;;19.75;11.80;;;6.90;99.90;;;;;;5075337;27;20371;-76
2022/11/28 03:38:24;;;;;;;11.65;8.02;;;10.60;99.90;;;;;;5109426;28;20027;-78
2022/11/28 03:41:29;;;;;;;15.13;9.10;;;7.20;99.90;;;;;;5095492;28;20095;-77
2022/11/28 03:44:58;;;;;;;15.55;10.80;;;7.40;99.90;;;;;;5101428;27;20032;-77
2022/11/28 03:47:30;;;;;;;12.05;8.20;;;7.20;99.90;;;;;;5092532;28;20046;-77
2022/11/28 03:50:04;;;;;;;15.85;10.65;;;7.30;99.90;;;;;;5073469;28;20095;-76
2022/11/28 03:52:40;;;;;;;14.93;10.65;;;7.30;99.90;;;;;;5102485;28;20031;-79
2022/11/28 03:55:54;;;;;;;12.73;8.68;;;7.40;99.90;;;;;;5074482;28;20039;-76
2022/11/28 03:59:04;;;;;;;21.38;12.82;;;7.70;99.90;;;;;;5076322;28;20042;-78
2022/11/28 04:02:00;;;;;;;24.55;13.73;;;7.40;99.90;;;;;;5079213;27;20031;-77
2022/11/28 04:04:54;;;;;;;20.55;11.77;;;6.90;99.90;;;;;;5092644;28;20138;-76
2022/11/28 04:07:29;;;;;;;16.08;11.07;;;7.50;99.90;;;;;;5109356;27;20074;-78
2022/11/28 04:10:13;;;;;;;14.00;9.85;;;7.40;99.90;;;;;;5072700;27;20333;-78
2022/11/28 04:12:58;;;;;;;19.33;12.25;;;7.30;99.90;;;;;;5072654;27;20096;-79
2022/11/28 04:15:38;;;;;;;22.83;14.20;;;7.40;99.90;;;;;;5088583;27;20025;-77
2022/11/28 04:18:34;;;;;;;15.88;10.75;;;6.90;99.90;;;;;;5094312;28;20127;-78
2022/11/28 04:21:02;;;;;;;24.38;14.55;;;;;;;;;;5079898;27;21382;-78
2022/11/28 04:27:26;;;;;;;17.80;11.75;;;6.70;99.90;;;;;;5111796;27;20070;-78
2022/11/28 04:30:30;;;;;;;17.85;10.75;;;8.70;99.90;;;;;;5078610;28;20142;-76
2022/11/28 04:33:30;;;;;;;14.13;9.23;;;7.10;99.90;;;;;;5108989;27;20095;-78
2022/11/28 04:35:56;;;;;;;26.67;16.52;;;;;;;;;;5087504;28;20081;-76
2022/11/28 04:38:30;;;;;;;17.90;12.63;;;7.60;99.90;;;;;;5124412;27;20311;-77
2022/11/28 04:41:15;;;;;;;29.85;17.30;;;7.30;99.90;;;;;;5084867;27;20115;-77
2022/11/28 04:44:04;;;;;;;24.50;15.98;;;7.70;99.90;;;;;;5105414;28;20111;-76
2022/11/28 04:50:47;;;;;;;28.27;17.60;;;7.40;99.90;;;;;;5080537;27;20083;-75
2022/11/28 04:54:12;;;;;;;18.70;12.43;;;8.10;99.90;;;;;;5070427;28;20050;-76
2022/11/28 04:56:56;;;;;;;30.40;16.08;;;7.00;99.90;;;;;;5072902;28;20084;-76
2022/11/28 04:59:25;;;;;;;20.15;14.25;;;7.90;99.90;;;;;;5066423;28;20036;-76
2022/11/28 05:02:01;;;;;;;32.30;20.10;;;9.10;99.90;;;;;;5088795;28;20036;-74
2022/11/28 05:04:27;;;;;;;18.75;12.55;;;7.70;99.90;;;;;;5089001;28;20043;-77
2022/11/28 05:07:11;;;;;;;14.38;10.23;;;8.00;99.90;;;;;;5082670;28;20269;-76
2022/11/28 05:09:37;;;;;;;23.83;15.63;;;7.90;99.90;;;;;;5123491;27;20201;-75
2022/11/28 05:12:03;;;;;;;31.27;18.85;;;8.00;99.90;;;;;;5082741;28;20240;-75
2022/11/28 05:14:29;;;;;;;21.92;13.68;;;8.00;99.90;;;;;;5100004;28;20060;-76
2022/11/28 05:16:55;;;;;;;29.17;18.42;;;9.20;99.90;;;;;;5064488;28;20184;-76
2022/11/28 05:19:21;;;;;;;39.67;20.85;;;7.90;99.90;;;;;;5077281;28;20260;-76
2022/11/28 05:21:46;;;;;;;29.45;19.33;;;8.20;99.90;;;;;;5050716;28;20115;-76
2022/11/28 05:24:13;;;;;;;22.33;14.10;;;;;;;;;;5095455;28;20051;-76
2022/11/28 05:26:43;;;;;;;29.35;18.98;;;7.60;99.90;;;;;;5099097;28;20040;-76
2022/11/28 05:29:28;;;;;;;23.50;16.15;;;;;;;;;;5006379;28;20111;-76
2022/11/28 05:32:41;;;;;;;26.17;16.92;;;8.20;99.90;;;;;;5057509;28;20367;-74
2022/11/28 05:35:28;;;;;;;31.00;20.92;;;6.10;99.90;;;;;;5056590;28;20037;-75
2022/11/28 05:37:57;;;;;;;21.33;15.10;;;8.40;99.90;;;;;;5090268;28;20025;-75
2022/11/28 05:40:46;;;;;;;25.55;17.65;;;8.30;99.90;;;;;;5043987;28;20078;-75
2022/11/28 05:43:57;;;;;;;32.28;19.65;;;8.40;99.90;;;;;;5061331;28;20079;-76
2022/11/28 05:46:24;;;;;;;23.83;16.20;;;8.90;99.90;;;;;;5061867;28;20076;-75
2022/11/28 05:49:08;;;;;;;;;;;;;;;;;;;;;
2022/11/28 05:51:34;;;;;;;18.67;13.27;;;7.90;99.90;;;;;;5043861;28;20079;-76
2022/11/28 05:54:00;;;;;;;33.72;21.33;;;;;;;;;;5062677;28;20040;-78
2022/11/28 05:56:29;;;;;;;31.08;20.42;;;8.10;99.90;;;;;;5094488;28;20145;-76
2022/11/28 05:58:58;;;;;;;24.83;16.80;;;;;;;;;;5065062;28;20128;-76
2022/11/28 06:01:26;;;;;;;26.52;18.58;;;8.10;99.90;;;;;;5086244;28;20039;-76
2022/11/28 06:03:58;;;;;;;27.95;19.55;;;8.20;99.90;;;;;;5102791;28;20024;-77
2022/11/28 06:06:24;;;;;;;19.58;12.48;;;8.50;99.90;;;;;;5083208;28;20334;-76
2022/11/28 06:08:51;;;;;;;30.35;20.27;;;8.50;99.90;;;;;;5107494;28;20309;-75
2022/11/28 06:11:18;;;;;;;22.73;16.02;;;8.60;99.90;;;;;;5098320;28;20435;-76
2022/11/28 06:13:45;;;;;;;25.67;17.58;;;8.60;99.90;;;;;;5095067;28;20060;-77
2022/11/28 06:16:14;;;;;;;24.08;16.33;;;9.00;99.90;;;;;;5085719;28;20032;-76
2022/11/28 06:18:40;;;;;;;26.25;17.75;;;;;;;;;;5102173;28;20140;-79
2022/11/28 06:21:07;;;;;;;21.13;13.95;;;9.10;99.90;;;;;;5102814;28;20032;-76
2022/11/28 06:23:34;;;;;;;30.25;20.15;;;8.20;99.90;;;;;;5100295;28;20525;-77
2022/11/28 06:26:05;;;;;;;25.15;16.13;;;8.70;99.90;;;;;;5094293;28;20052;-76
2022/11/28 06:28:31;;;;;;;27.10;17.73;;;8.30;99.90;;;;;;5102574;28;20160;-77
2022/11/28 06:30:57;;;;;;;17.73;12.27;;;9.50;99.90;;;;;;5067997;28;20036;-77
2022/11/28 06:33:22;;;;;;;25.23;18.17;;;8.70;99.90;;;;;;5081210;28;20059;-77
2022/11/28 06:35:48;;;;;;;16.73;11.45;;;8.30;99.90;;;;;;5058460;28;20063;-79
2022/11/28 06:38:14;;;;;;;22.52;14.93;;;;;;;;;;5093688;28;20035;-77
2022/11/28 06:40:40;;;;;;;23.15;18.35;;;8.60;99.90;;;;;;5112438;28;20059;-78
2022/11/28 06:43:06;;;;;;;18.25;12.77;;;8.30;99.90;;;;;;5084942;28;20077;-78
2022/11/28 06:45:34;;;;;;;19.00;12.88;;;8.50;99.90;;;;;;5080284;28;20056;-76
2022/11/28 06:48:00;;;;;;;22.08;16.45;;;8.50;99.90;;;;;;5098505;28;20032;-77
2022/11/28 06:50:27;;;;;;;23.73;15.32;;;8.10;99.90;;;;;;5100816;28;20100;-77
2022/11/28 06:52:55;;;;;;;23.70;16.63;;;10.20;99.90;;;;;;5092308;28;20030;-74
2022/11/28 06:55:21;;;;;;;25.85;17.55;;;9.60;99.90;;;;;;5084220;28;20323;-75
2022/11/28 06:57:47;;;;;;;24.50;17.52;;;;;;;;;;5086852;28;20085;-76
2022/11/28 07:00:13;;;;;;;23.65;16.27;;;8.40;99.90;;;;;;5096789;28;20033;-77
2022/11/28 07:02:39;;;;;;;25.58;18.55;;;9.20;99.90;;;;;;5066167;28;20108;-75
2022/11/28 07:05:05;;;;;;;28.83;19.08;;;8.60;99.90;;;;;;5067298;28;20028;-75
2022/11/28 07:07:31;;;;;;;31.55;19.63;;;7.70;99.90;;;;;;5084506;28;20067;-74
2022/11/28 07:09:56;;;;;;;25.42;16.90;;;10.20;99.90;;;;;;5093055;28;20039;-74
2022/11/28 07:12:22;;;;;;;23.15;15.35;;;;;;;;;;5104781;28;20024;-78
2022/11/28 07:14:48;;;;;;;28.63;18.42;;;9.00;99.90;;;;;;5102866;28;20028;-75
2022/11/28 07:17:14;;;;;;;25.08;17.17;;;9.50;99.90;;;;;;5079446;28;20085;-76
2022/11/28 07:19:39;;;;;;;26.67;17.08;;;7.60;99.90;;;;;;5067997;28;20047;-75
2022/11/28 07:22:05;;;;;;;25.90;16.27;;;7.80;99.90;;;;;;5071349;28;20120;-75
2022/11/28 07:24:31;;;;;;;26.02;17.65;;;7.20;99.90;;;;;;5099458;28;20330;-75
2022/11/28 07:26:57;;;;;;;26.15;17.23;;;8.40;99.90;;;;;;5068893;28;20047;-77
2022/11/28 07:29:23;;;;;;;28.88;18.60;;;8.20;99.90;;;;;;5100197;28;20206;-76
2022/11/28 07:31:49;;;;;;;32.97;20.17;;;8.30;99.90;;;;;;5069532;28;20048;-77
2022/11/28 07:34:15;;;;;;;24.70;16.83;;;8.50;99.90;;;;;;5063857;28;20074;-76
2022/11/28 07:36:41;;;;;;;26.67;17.00;;;8.20;99.90;;;;;;5072974;28;20032;-74
2022/11/28 07:39:11;;;;;;;30.10;17.15;;;9.30;99.90;;;;;;5101982;28;20054;-73
2022/11/28 07:41:36;;;;;;;25.65;16.38;;;9.30;99.90;;;;;;5080773;28;20064;-73
2022/11/28 07:44:04;;;;;;;25.90;17.05;;;8.10;99.90;;;;;;5080803;28;20523;-76
2022/11/28 07:46:31;;;;;;;25.10;15.30;;;8.40;99.90;;;;;;5087235;28;20032;-73
2022/11/28 07:48:57;;;;;;;26.33;17.00;;;8.40;99.90;;;;;;5093895;28;20043;-74
2022/11/28 07:51:28;;;;;;;28.80;18.75;;;8.80;99.90;;;;;;5110786;28;20031;-73
2022/11/28 07:53:54;;;;;;;31.50;18.50;;;8.90;99.90;;;;;;5113138;28;20043;-74
2022/11/28 07:56:23;;;;;;;27.27;17.95;;;7.90;99.90;;;;;;5078899;28;21162;-75
2022/11/28 07:58:49;;;;;;;24.73;16.08;;;8.60;99.90;;;;;;5095944;28;20673;-77
2022/11/28 08:01:19;;;;;;;27.60;16.13;;;8.20;99.90;;;;;;5099613;28;20032;-77
2022/11/28 08:03:46;;;;;;;26.90;16.45;;;9.00;99.90;;;;;;5097256;28;20036;-74
2022/11/28 08:06:24;;;;;;;21.30;14.93;;;8.60;99.90;;;;;;5097998;28;20078;-74
2022/11/28 08:09:11;;;;;;;23.50;14.37;;;9.40;99.90;;;;;;5063604;28;20330;-74
2022/11/28 08:11:37;;;;;;;27.40;16.98;;;8.90;99.90;;;;;;5101953;28;20020;-74
2022/11/28 08:14:04;;;;;;;26.50;16.00;;;8.80;99.90;;;;;;5080181;28;20040;-74
2022/11/28 08:16:30;;;;;;;25.52;17.38;;;8.80;99.90;;;;;;5098966;28;20047;-75
2022/11/28 08:18:59;;;;;;;31.60;18.08;;;8.70;99.90;;;;;;5077928;28;20048;-75
2022/11/28 08:21:55;;;;;;;30.27;17.48;;;8.40;99.90;;;;;;5099165;28;20051;-74
2022/11/28 08:24:20;;;;;;;26.52;18.17;;;8.40;99.90;;;;;;5075443;28;20065;-75
2022/11/28 08:26:47;;;;;;;24.10;13.90;;;8.50;99.90;;;;;;5081657;28;20083;-74
2022/11/28 08:29:13;;;;;;;25.40;17.08;;;8.50;99.90;;;;;;5061485;28;20032;-75
2022/11/28 08:31:39;;;;;;;25.40;16.77;;;8.60;99.90;;;;;;5079321;28;20040;-74
2022/11/28 08:34:38;;;;;;;22.08;14.13;;;8.60;99.90;;;;;;5098842;28;20032;-76
2022/11/28 08:37:50;;;;;;;16.85;12.48;;;8.70;99.90;;;;;;5041518;28;20077;-75
2022/11/28 08:40:16;;;;;;;28.83;17.20;;;;;;;;;;5079040;28;20048;-74
2022/11/28 08:42:42;;;;;;;19.52;12.23;;;;;;;;;;5079872;28;20346;-74
2022/11/28 08:45:10;;;;;;;25.55;14.88;;;8.70;99.90;;;;;;5062643;28;20391;-77
2022/11/28 08:47:35;;;;;;;25.02;14.82;;;8.50;99.90;;;;;;5076760;28;20055;-75
2022/11/28 08:50:25;;;;;;;19.40;12.52;;;8.70;99.90;;;;;;5081012;28;20130;-74
2022/11/28 08:52:51;;;;;;;21.98;14.02;;;8.80;99.90;;;;;;5078243;28;20032;-75
2022/11/28 08:55:23;;;;;;;28.80;16.17;;;8.70;99.90;;;;;;5098051;28;20104;-75
2022/11/28 08:57:49;;;;;;;20.05;13.85;;;;;;;;;;5057119;28;20306;-75
2022/11/28 09:00:15;;;;;;;24.17;15.15;;;8.60;99.90;;;;;;5086704;28;20024;-75
2022/11/28 09:02:41;;;;;;;18.08;12.20;;;8.70;99.90;;;;;;5087089;28;20099;-74
2022/11/28 09:05:07;;;;;;;18.83;12.75;;;8.20;99.90;;;;;;5099216;28;20035;-71
2022/11/28 09:07:33;;;;;;;20.55;14.07;;;9.20;99.90;;;;;;5070620;28;20036;-67
2022/11/28 09:09:58;;;;;;;15.77;10.68;;;8.40;99.90;;;;;;5082376;28;20035;-75
2022/11/28 09:12:24;;;;;;;20.83;12.95;;;8.00;99.90;;;;;;5081732;28;20033;-73
2022/11/28 09:14:50;;;;;;;17.25;11.18;;;9.30;99.90;;;;;;5090766;28;20058;-74
2022/11/28 09:17:15;;;;;;;14.10;9.43;;;8.50;99.90;;;;;;5061906;28;20041;-74
2022/11/28 09:19:41;;;;;;;14.63;10.18;;;8.20;99.90;;;;;;5077832;28;20068;-74
2022/11/28 09:22:07;;;;;;;14.00;9.70;;;8.50;99.90;;;;;;5091492;28;20032;-74
2022/11/28 09:24:33;;;;;;;18.98;11.57;;;8.30;99.90;;;;;;5080522;28;20240;-75
2022/11/28 09:26:58;;;;;;;12.38;7.85;;;8.30;99.90;;;;;;5082175;28;20062;-72
2022/11/28 09:29:25;;;;;;;17.38;11.27;;;8.40;99.90;;;;;;5097859;28;20032;-73
2022/11/28 09:31:51;;;;;;;15.80;11.32;;;7.80;99.90;;;;;;5098940;28;20050;-74
2022/11/28 09:34:16;;;;;;;15.52;8.98;;;9.00;99.90;;;;;;5078503;28;20053;-75
2022/11/28 09:36:42;;;;;;;18.08;11.73;;;8.90;99.90;;;;;;5096278;28;20028;-74
2022/11/28 09:39:08;;;;;;;12.15;8.73;;;8.70;99.90;;;;;;5099472;28;20435;-73
2022/11/28 09:41:58;;;;;;;12.65;8.50;;;8.80;99.90;;;;;;5104622;28;20259;-74
2022/11/28 09:44:47;;;;;;;13.00;9.38;;;8.40;99.90;;;;;;5082411;28;20051;-75
2022/11/28 09:47:21;;;;;;;9.65;7.35;;;8.10;99.90;;;;;;5083052;28;20024;-73
2022/11/28 09:50:15;;;;;;;10.85;7.20;;;8.50;99.90;;;;;;5106220;28;20032;-73
2022/11/28 09:53:14;;;;;;;9.50;7.40;;;8.10;99.90;;;;;;5110098;28;20043;-72
2022/11/28 09:55:55;;;;;;;13.25;8.88;;;8.60;99.90;;;;;;5103455;28;20069;-75
2022/11/28 09:58:41;;;;;;;11.50;8.40;;;7.90;99.90;;;;;;5090601;28;20028;-73
2022/11/28 10:01:25;;;;;;;11.65;7.55;;;8.70;99.90;;;;;;5074643;28;20285;-75
2022/11/28 10:04:20;;;;;;;11.23;7.10;;;9.20;99.90;;;;;;5069705;28;20028;-73
2022/11/28 10:06:49;;;;;;;10.45;5.85;;;8.50;99.90;;;;;;5080044;28;20204;-73
2022/11/28 10:09:29;;;;;;;8.02;5.75;;;9.20;99.90;;;;;;5121126;27;20024;-75
2022/11/28 10:11:54;;;;;;;11.77;7.80;;;8.60;99.90;;;;;;5089499;28;20044;-76
2022/11/28 10:14:20;;;;;;;9.70;6.68;;;;;;;;;;5068140;28;20259;-75
2022/11/28 10:16:49;;;;;;;6.60;5.07;;;8.50;99.90;;;;;;5088678;28;20295;-76
2022/11/28 10:19:20;;;;;;;7.85;5.80;;;8.90;99.90;;;;;;5089398;28;20020;-76
2022/11/28 10:21:52;;;;;;;8.43;5.63;;;8.60;99.90;;;;;;5067029;28;20033;-75
2022/11/28 10:24:24;;;;;;;8.25;5.93;;;8.50;99.90;;;;;;5086405;28;20106;-75
2022/11/28 10:26:54;;;;;;;6.45;4.78;;;9.00;99.90;;;;;;5089076;28;20052;-75
2022/11/28 10:29:26;;;;;;;9.05;5.75;;;8.60;99.90;;;;;;5078748;28;20315;-74
2022/11/28 10:31:57;;;;;;;7.68;5.97;;;8.50;99.90;;;;;;5085739;28;20036;-74
2022/11/28 10:34:48;;;;;;;10.82;6.97;;;8.40;99.90;;;;;;5081743;28;20234;-74
2022/11/28 10:37:20;;;;;;;9.90;6.13;;;8.70;99.90;;;;;;5101162;28;20036;-75
2022/11/28 10:39:46;;;;;;;11.45;7.25;;;8.70;99.90;;;;;;5100188;28;20214;-75
2022/11/28 10:42:25;;;;;;;9.13;6.75;;;8.80;99.90;;;;;;5080330;28;20204;-75
2022/11/28 10:45:13;;;;;;;9.57;6.82;;;9.00;99.90;;;;;;5099583;28;20044;-75
2022/11/28 10:47:48;;;;;;;9.90;6.47;;;8.70;99.90;;;;;;5082984;28;20036;-74
2022/11/28 10:50:22;;;;;;;11.65;7.47;;;8.60;99.90;;;;;;5097419;28;20035;-74
2022/11/28 10:53:13;;;;;;;10.32;7.25;;;9.00;99.90;;;;;;5099079;28;20113;-76
2022/11/28 10:56:15;;;;;;;7.82;5.55;;;10.10;99.90;;;;;;5112711;28;20043;-76
2022/11/28 10:58:49;;;;;;;8.18;6.40;;;9.50;99.90;;;;;;5084347;28;20028;-75
2022/11/28 11:01:15;;;;;;;10.63;7.10;;;9.60;99.90;;;;;;5082464;28;20264;-74
2022/11/28 11:03:41;;;;;;;11.05;7.53;;;9.10;99.90;;;;;;5083015;28;20031;-74
2022/11/28 11:06:07;;;;;;;10.30;6.10;;;8.20;99.90;;;;;;5080911;28;20045;-75
2022/11/28 11:08:39;;;;;;;7.82;5.53;;;9.70;99.90;;;;;;5097645;28;20228;-74
2022/11/28 11:11:19;;;;;;;11.50;7.63;;;8.40;99.90;;;;;;5067935;28;20039;-74
2022/11/28 11:14:02;;;;;;;7.53;5.45;;;9.70;99.90;;;;;;5092386;28;20143;-73
2022/11/28 11:16:58;;;;;;;10.25;7.20;;;9.20;99.90;;;;;;5127502;27;20044;-73
2022/11/28 11:19:37;;;;;;;;;;;8.90;99.90;;;;;;5090422;28;20031;-76
2022/11/28 11:22:08;;;;;;;8.27;5.95;;;8.90;99.90;;;;;;5098265;28;19943;-76
2022/11/28 11:24:34;;;;;;;11.52;7.72;;;9.30;99.90;;;;;;5133413;27;20319;-74
2022/11/28 11:27:17;;;;;;;11.45;8.40;;;8.50;99.90;;;;;;5083690;28;20040;-76
2022/11/28 11:29:43;;;;;;;10.38;7.55;;;9.20;99.90;;;;;;5099873;28;20074;-75
2022/11/28 11:32:20;;;;;;;12.27;8.95;;;9.40;99.90;;;;;;5101657;28;20032;-76
2022/11/28 11:34:46;;;;;;;9.65;7.82;;;9.20;99.90;;;;;;5098657;28;20044;-78
2022/11/28 11:37:30;;;;;;;10.80;8.15;;;9.70;99.90;;;;;;5100473;28;20038;-72
2022/11/28 11:39:57;;;;;;;8.82;7.03;;;9.70;99.90;;;;;;5105474;28;20063;-73
2022/11/28 11:42:28;;;;;;;14.95;10.98;;;9.20;99.90;;;;;;5095027;28;20032;-74
2022/11/28 11:44:55;;;;;;;16.77;11.07;;;9.00;99.90;;;;;;5114039;28;20287;-75
2022/11/28 11:47:42;;;;;;;11.13;8.52;;;9.20;99.90;;;;;;5063545;28;20028;-72
2022/11/28 11:50:19;;;;;;;11.95;8.95;;;9.90;99.90;;;;;;5093460;28;20093;-73
2022/11/28 11:53:00;;;;;;;12.15;8.23;;;9.60;99.90;;;;;;5081588;28;20019;-73
2022/11/28 11:55:29;;;;;;;9.25;7.50;;;9.40;99.90;;;;;;5098462;28;20035;-74
2022/11/28 11:57:57;;;;;;;12.52;8.70;;;10.00;99.90;;;;;;5098645;28;20032;-74
2022/11/28 12:00:37;;;;;;;11.52;8.57;;;9.80;99.90;;;;;;5096158;28;20060;-73
2022/11/28 12:03:25;;;;;;;10.95;8.27;;;10.60;99.90;;;;;;5095833;28;20028;-71
2022/11/28 12:05:58;;;;;;;10.68;7.88;;;9.50;99.90;;;;;;5084888;28;20040;-74
2022/11/28 12:08:32;;;;;;;10.88;7.85;;;9.50;99.90;;;;;;5112374;28;20044;-74
2022/11/28 12:11:10;;;;;;;11.73;8.85;;;9.60;99.90;;;;;;5108119;28;20038;-74
2022/11/28 12:13:36;;;;;;;10.30;7.97;;;8.70;99.90;;;;;;5128105;27;20064;-74
2022/11/28 12:16:47;;;;;;;9.23;7.22;;;9.70;99.90;;;;;;5095296;28;20082;-76
2022/11/28 12:19:22;;;;;;;11.55;7.47;;;8.80;99.90;;;;;;5048990;28;20040;-74
2022/11/28 12:21:54;;;;;;;13.65;8.27;;;8.30;99.90;;;;;;5100301;28;20040;-74
2022/11/28 12:24:32;;;;;;;13.95;9.23;;;10.20;99.90;;;;;;5089817;28;20467;-71
2022/11/28 12:27:11;;;;;;;11.88;8.45;;;9.30;99.90;;;;;;5116062;27;20052;-74
2022/11/28 12:29:58;;;;;;;11.95;8.18;;;9.50;99.90;;;;;;5084896;28;20093;-75
2022/11/28 12:32:54;;;;;;;12.40;8.80;;;9.70;99.90;;;;;;5103850;28;20033;-73
2022/11/28 12:35:43;;;;;;;10.98;8.27;;;9.40;99.90;;;;;;5085818;28;20059;-75
2022/11/28 12:38:17;;;;;;;11.30;7.68;;;9.10;99.90;;;;;;5067976;28;20189;-73
2022/11/28 12:41:11;;;;;;;11.05;7.82;;;9.60;99.90;;;;;;5072258;28;20040;-75
2022/11/28 12:43:52;;;;;;;13.15;8.45;;;8.60;99.90;;;;;;5096410;28;20368;-71
2022/11/28 12:46:29;;;;;;;13.63;8.95;;;9.40;99.90;;;;;;5097274;28;20086;-72
2022/11/28 12:49:29;;;;;;;11.80;8.65;;;8.80;99.90;;;;;;5082175;28;20071;-72
2022/11/28 12:52:16;;;;;;;14.85;9.32;;;9.20;99.90;;;;;;5080511;28;20036;-72
2022/11/28 12:54:51;;;;;;;12.70;8.75;;;9.70;99.90;;;;;;5091789;28;20094;-74
2022/11/28 12:57:25;;;;;;;13.18;8.90;;;10.20;99.90;;;;;;5082439;28;20032;-74
2022/11/28 13:00:10;;;;;;;11.75;8.43;;;9.10;99.90;;;;;;5132538;27;20051;-76
2022/11/28 13:02:51;;;;;;;14.30;9.70;;;10.10;99.90;;;;;;5096665;28;20039;-74
2022/11/28 13:05:19;;;;;;;16.52;10.18;;;9.30;99.90;;;;;;5077924;28;20036;-74
2022/11/28 13:08:10;;;;;;;14.95;9.68;;;8.90;99.90;;;;;;5081030;28;20846;-74
2022/11/28 13:10:44;;;;;;;14.43;9.02;;;9.20;99.90;;;;;;5084338;28;20044;-74
2022/11/28 13:13:31;;;;;;;14.37;9.00;;;9.80;99.90;;;;;;5094376;28;20095;-75
2022/11/28 13:16:00;;;;;;;13.70;8.85;;;9.30;99.90;;;;;;5077711;28;20125;-74
2022/11/28 13:18:44;;;;;;;16.67;10.48;;;9.70;99.90;;;;;;5124959;27;20302;-74
2022/11/28 13:21:45;;;;;;;10.88;7.78;;;8.90;99.90;;;;;;5081801;28;20306;-74
2022/11/28 13:24:36;;;;;;;13.32;9.05;;;9.40;99.90;;;;;;5052467;28;20054;-75
2022/11/28 13:27:35;;;;;;;15.15;10.05;;;9.40;99.90;;;;;;5066662;28;20051;-75
2022/11/28 13:30:21;;;;;;;14.02;9.07;;;9.00;99.90;;;;;;5080733;28;20137;-74
2022/11/28 13:33:25;;;;;;;12.98;8.98;;;9.50;99.90;;;;;;5118966;28;20039;-73
2022/11/28 13:35:52;;;;;;;14.07;9.05;;;10.60;99.90;;;;;;5027445;28;20714;-75
2022/11/28 13:39:07;;;;;;;17.02;10.55;;;8.90;99.90;;;;;;5016095;28;20489;-73
2022/11/28 13:41:33;;;;;;;15.80;10.88;;;9.20;99.90;;;;;;5038943;28;20031;-74
2022/11/28 13:44:15;;;;;;;14.00;10.38;;;9.00;99.90;;;;;;5098198;28;20360;-74
2022/11/28 13:46:42;;;;;;;13.48;9.65;;;10.20;99.90;;;;;;5063497;28;20076;-75
2022/11/28 13:49:22;;;;;;;14.00;9.98;;;9.60;99.90;;;;;;5084377;28;20036;-74
2022/11/28 13:52:08;;;;;;;14.00;9.68;;;9.10;99.90;;;;;;5115075;28;20346;-75
2022/11/28 13:54:39;;;;;;;14.77;10.43;;;9.70;99.90;;;;;;5063961;28;20041;-73
2022/11/28 13:57:27;;;;;;;16.45;10.48;;;9.90;99.90;;;;;;5080070;28;20028;-74
2022/11/28 14:00:00;;;;;;;12.05;8.82;;;9.80;99.90;;;;;;5067269;28;20068;-73
2022/11/28 14:02:43;;;;;;;12.40;8.90;;;9.90;99.90;;;;;;5104657;28;20098;-74
2022/11/28 14:05:31;;;;;;;13.23;9.05;;;10.00;99.90;;;;;;5077495;28;20062;-73
2022/11/28 14:07:57;;;;;;;12.00;8.75;;;10.20;99.90;;;;;;5078962;28;20066;-73
2022/11/28 14:10:51;;;;;;;13.30;9.02;;;9.20;99.90;;;;;;5081460;28;20028;-74
2022/11/28 14:14:14;;;;;;;15.15;9.10;;;10.00;99.90;;;;;;5081643;28;20024;-74
2022/11/28 14:17:09;;;;;;;13.15;9.20;;;9.80;99.90;;;;;;4993732;28;20404;-75
2022/11/28 14:19:44;;;;;;;;;;;9.30;99.90;;;;;;5023849;28;20038;-73
2022/11/28 14:22:50;;;;;;;11.43;8.10;;;9.50;99.90;;;;;;5060943;28;20276;-73
2022/11/28 14:25:40;;;;;;;14.98;10.02;;;10.20;99.90;;;;;;5072569;28;20111;-73
2022/11/28 14:28:32;;;;;;;16.50;9.70;;;9.70;99.90;;;;;;5063384;28;20052;-74
2022/11/28 14:31:39;;;;;;;15.63;10.32;;;9.90;99.90;;;;;;5119634;27;20138;-75